Time;durP1;ratioP1;P1;durP2;ratioP2;P2;SDS_P1;SDS_P2;PMS_P1;PMS_P2;Temp;Humidity;BMP_temperature;BMP_pressure;BME280_temperature;BME280_humidity;BME280_pressure;Samples;Min_cycle;Max_cycle;Signal;HPM_P1;HPM_P2
2022/03/26 00:02:23;;;;;;;40.33;25.52;;;;;;;;;;5004789;28;20038;-72
2022/03/26 00:04:49;;;;;;;36.38;24.08;;;;;;;;;;5014694;28;20088;-71
2022/03/26 00:07:14;;;;;;;38.13;24.45;;;;;;;;;;5008956;28;20061;-71
2022/03/26 00:09:40;;;;;;;40.47;25.38;;;;;;;;;;4987397;28;20034;-72
2022/03/26 00:12:06;;;;;;;38.53;25.55;;;;;;;;;;5007490;28;20388;-71
2022/03/26 00:14:32;;;;;;;41.28;27.88;;;;;;;;;;5014505;28;20103;-71
2022/03/26 00:16:59;;;;;;;38.05;25.17;;;;;;;;;;5010775;28;20072;-70
2022/03/26 00:19:24;;;;;;;36.80;25.48;;;;;;;;;;5010871;28;20068;-70
2022/03/26 00:21:50;;;;;;;44.35;26.90;;;;;;;;;;5008455;28;20504;-71
2022/03/26 00:24:15;;;;;;;50.08;28.80;;;;;;;;;;5017538;28;20037;-71
2022/03/26 00:26:41;;;;;;;46.58;26.65;;;;;;;;;;5017741;28;20033;-70
2022/03/26 00:29:08;;;;;;;48.92;28.75;;;;;;;;;;4999696;28;20077;-70
2022/03/26 00:31:37;;;;;;;38.67;25.98;;;;;;;;;;4992093;28;20113;-70
2022/03/26 00:34:07;;;;;;;43.15;26.63;;;;;;;;;;5007136;28;20347;-71
2022/03/26 00:36:32;;;;;;;;;;;;;;;;;;5013927;28;20030;-70
2022/03/26 00:38:58;;;;;;;34.85;23.67;;;;;;;;;;5012215;28;19940;-70
2022/03/26 00:41:24;;;;;;;40.20;25.58;;;;;;;;;;5010054;28;20033;-71
2022/03/26 00:43:50;;;;;;;40.47;24.92;;;;;;;;;;5007328;28;20077;-71
2022/03/26 00:46:16;;;;;;;35.97;24.10;;;;;;;;;;5014875;28;20064;-70
2022/03/26 00:48:42;;;;;;;41.58;24.17;;;;;;;;;;5012764;28;20061;-70
2022/03/26 00:51:09;;;;;;;35.75;23.23;;;;;;;;;;5028646;22;20028;-70
2022/03/26 00:53:35;;;;;;;43.75;25.90;;;;;;;;;;5033412;28;20052;-70
2022/03/26 00:56:00;;;;;;;39.72;23.83;;;;;;;;;;5035238;28;20392;-70
2022/03/26 00:58:26;;;;;;;41.10;24.13;;;;;;;;;;5051131;28;20036;-70
2022/03/26 01:00:52;;;;;;;39.47;23.40;;;;;;;;;;5047117;28;20025;-70
2022/03/26 01:03:18;;;;;;;44.03;25.23;;;;;;;;;;5050207;28;20178;-70
2022/03/26 01:05:44;;;;;;;36.35;23.25;;;;;;;;;;5048783;28;20067;-70
2022/03/26 01:08:10;;;;;;;41.47;25.63;;;;;;;;;;5048100;28;20342;-70
2022/03/26 01:10:36;;;;;;;40.30;24.13;;;;;;;;;;5049919;28;20037;-71
2022/03/26 01:13:02;;;;;;;37.45;24.90;;;;;;;;;;5050273;28;20044;-70
2022/03/26 01:15:28;;;;;;;39.72;24.65;;;;;;;;;;5049836;28;20029;-70
2022/03/26 01:17:54;;;;;;;44.25;25.00;;;;;;;;;;5049283;28;20649;-70
2022/03/26 01:20:20;;;;;;;37.20;24.42;;;;;;;;;;5048893;28;20040;-70
2022/03/26 01:22:46;;;;;;;43.83;24.70;;;;;;;;;;5050048;28;20111;-70
2022/03/26 01:25:13;;;;;;;38.88;24.20;;;;;;;;;;5058210;28;20040;-70
2022/03/26 01:27:38;;;;;;;40.80;24.55;;;;;;;;;;5049204;28;20122;-70
2022/03/26 01:30:05;;;;;;;42.20;24.73;;;;;;;;;;5050011;28;20770;-70
2022/03/26 01:32:31;;;;;;;38.67;24.88;;;;;;;;;;5050058;28;20495;-70
2022/03/26 01:34:57;;;;;;;38.17;23.10;;;;;;;;;;5048544;28;20383;-70
2022/03/26 01:37:24;;;;;;;39.60;23.05;;;;;;;;;;5049341;28;20037;-70
2022/03/26 01:39:50;;;;;;;33.88;22.38;;;;;;;;;;5049523;28;20107;-70
2022/03/26 01:42:17;;;;;;;41.08;24.23;;;;;;;;;;5050114;28;20499;-70
2022/03/26 01:44:43;;;;;;;39.15;24.23;;;;;;;;;;5049716;28;20040;-70
2022/03/26 01:47:09;;;;;;;36.67;23.17;;;;;;;;;;5050004;28;20267;-70
2022/03/26 01:49:35;;;;;;;36.83;22.95;;;;;;;;;;5049495;28;20135;-70
2022/03/26 01:52:03;;;;;;;38.67;22.77;;;;;;;;;;5048322;28;20550;-70
2022/03/26 01:54:29;;;;;;;38.90;24.02;;;;;;;;;;5038437;28;20094;-70
2022/03/26 01:56:55;;;;;;;34.85;22.58;;;;;;;;;;5055044;28;20565;-70
2022/03/26 01:59:24;;;;;;;34.13;23.40;;;;;;;;;;5049755;28;20124;-70
2022/03/26 02:01:50;;;;;;;34.55;22.35;;;;;;;;;;5030331;28;20037;-70
2022/03/26 02:04:16;;;;;;;34.85;22.95;;;;;;;;;;5031396;28;20029;-70
2022/03/26 02:06:42;;;;;;;38.63;24.20;;;;;;;;;;5048542;28;20061;-70
2022/03/26 02:09:11;;;;;;;36.63;23.33;;;;;;;;;;5048330;28;20512;-70
2022/03/26 02:11:39;;;;;;;;;;;;;;;;;;5047988;28;20033;-70
2022/03/26 02:14:07;;;;;;;36.63;23.23;;;;;;;;;;5049203;28;19944;-70
2022/03/26 02:16:34;;;;;;;38.00;24.77;;;;;;;;;;5042976;28;20052;-70
2022/03/26 02:19:00;;;;;;;37.63;24.15;;;;;;;;;;5041845;28;20040;-70
2022/03/26 02:21:26;;;;;;;44.50;23.67;;;;;;;;;;5046992;28;20033;-70
2022/03/26 02:23:52;;;;;;;34.45;22.00;;;;;;;;;;5052263;28;20029;-70
2022/03/26 02:26:21;;;;;;;39.20;23.25;;;;;;;;;;5057073;28;20091;-70
2022/03/26 02:28:49;;;;;;;39.85;23.80;;;;;;;;;;5029318;28;20107;-70
2022/03/26 02:31:16;;;;;;;45.92;24.13;;;;;;;;;;5023261;28;20119;-70
2022/03/26 02:33:42;;;;;;;37.35;23.15;;;;;;;;;;5015097;28;20088;-70
2022/03/26 02:36:09;;;;;;;34.13;22.10;;;;;;;;;;5048378;28;20045;-70
2022/03/26 02:38:37;;;;;;;43.00;22.92;;;;;;;;;;5045958;28;20115;-70
2022/03/26 02:41:06;;;;;;;37.25;23.60;;;;;;;;;;5048647;28;20443;-70
2022/03/26 02:43:32;;;;;;;38.70;23.13;;;;;;;;;;5048865;28;20060;-68
2022/03/26 02:45:57;;;;;;;33.63;22.80;;;;;;;;;;5047362;28;20152;-70
2022/03/26 02:48:23;;;;;;;37.60;23.58;;;;;;;;;;5048238;28;20040;-70
2022/03/26 02:50:49;;;;;;;41.70;23.73;;;;;;;;;;5048583;28;20392;-70
2022/03/26 02:53:15;;;;;;;34.83;23.25;;;;;;;;;;5052907;28;20033;-70
2022/03/26 02:55:41;;;;;;;41.58;23.52;;;;;;;;;;5028436;28;20365;-70
2022/03/26 02:58:07;;;;;;;43.90;25.00;;;;;;;;;;5047084;28;20494;-70
2022/03/26 03:00:40;;;;;;;42.15;26.13;;;;;;;;;;5048628;28;20040;-70
2022/03/26 03:03:06;;;;;;;44.55;26.83;;;;;;;;;;5028689;28;20534;-70
2022/03/26 03:05:33;;;;;;;41.92;25.77;;;;;;;;;;5029474;28;20041;-70
2022/03/26 03:08:00;;;;;;;44.13;26.88;;;;;;;;;;5047840;28;20041;-70
2022/03/26 03:10:27;;;;;;;42.13;26.52;;;;;;;;;;5048332;28;20383;-70
2022/03/26 03:12:53;;;;;;;44.22;27.15;;;;;;;;;;5047007;28;20475;-70
2022/03/26 03:15:19;;;;;;;46.53;26.92;;;;;;;;;;5047821;28;20049;-70
2022/03/26 03:17:47;;;;;;;39.55;25.48;;;;;;;;;;5048592;28;20124;-70
2022/03/26 03:20:14;;;;;;;44.28;25.85;;;;;;;;;;5046849;28;20116;-70
2022/03/26 03:22:42;;;;;;;43.08;26.38;;;;;;;;;;5047121;28;20534;-70
2022/03/26 03:25:09;;;;;;;46.97;26.02;;;;;;;;;;5058116;28;20033;-70
2022/03/26 03:27:35;;;;;;;42.05;26.10;;;;;;;;;;5048278;28;20360;-70
2022/03/26 03:30:02;;;;;;;42.38;26.40;;;;;;;;;;5046310;28;20040;-70
2022/03/26 03:32:28;;;;;;;41.97;26.45;;;;;;;;;;5041658;28;20444;-70
2022/03/26 03:34:53;;;;;;;38.83;25.40;;;;;;;;;;5027139;28;20075;-70
2022/03/26 03:37:19;;;;;;;46.13;26.70;;;;;;;;;;5047267;28;20045;-70
2022/03/26 03:39:45;;;;;;;39.72;25.45;;;;;;;;;;5029453;28;20036;-70
2022/03/26 03:42:11;;;;;;;39.70;25.85;;;;;;;;;;5043823;28;20086;-70
2022/03/26 03:44:37;;;;;;;43.00;26.38;;;;;;;;;;5024777;28;20127;-70
2022/03/26 03:47:03;;;;;;;41.92;25.90;;;;;;;;;;5047595;28;20040;-70
2022/03/26 03:49:31;;;;;;;42.33;25.63;;;;;;;;;;5045102;28;20041;-70
2022/03/26 03:52:01;;;;;;;41.67;26.95;;;;;;;;;;5047077;28;20455;-70
2022/03/26 03:54:26;;;;;;;;;;;;;;;;;;5056750;28;20029;-70
2022/03/26 03:56:52;;;;;;;44.63;26.25;;;;;;;;;;5045394;28;19924;-69
2022/03/26 03:59:18;;;;;;;44.20;25.90;;;;;;;;;;5045262;28;20036;-70
2022/03/26 04:01:44;;;;;;;46.05;27.38;;;;;;;;;;5046732;28;20036;-70
2022/03/26 04:04:10;;;;;;;47.25;27.10;;;;;;;;;;5011052;28;20078;-70
2022/03/26 04:06:36;;;;;;;43.88;26.33;;;;;;;;;;5053147;28;20044;-69
2022/03/26 04:09:01;;;;;;;38.88;26.20;;;;;;;;;;5045355;28;20036;-70
2022/03/26 04:11:27;;;;;;;42.85;26.83;;;;;;;;;;5047000;28;20044;-69
2022/03/26 04:13:53;;;;;;;46.20;26.38;;;;;;;;;;5047540;28;20171;-70
2022/03/26 04:16:23;;;;;;;47.97;27.05;;;;;;;;;;5045687;28;20044;-70
2022/03/26 04:18:49;;;;;;;44.97;27.25;;;;;;;;;;5047155;28;20037;-69
2022/03/26 04:21:15;;;;;;;47.88;27.27;;;;;;;;;;5047298;28;20482;-70
2022/03/26 04:23:41;;;;;;;44.70;28.65;;;;;;;;;;5049755;28;20452;-70
2022/03/26 04:26:08;;;;;;;44.67;26.65;;;;;;;;;;5054285;28;20140;-70
2022/03/26 04:28:33;;;;;;;45.13;27.15;;;;;;;;;;5028502;28;20439;-70
2022/03/26 04:30:59;;;;;;;45.20;26.95;;;;;;;;;;5047134;28;20538;-70
2022/03/26 04:33:25;;;;;;;44.08;27.55;;;;;;;;;;5036296;28;20049;-70
2022/03/26 04:35:50;;;;;;;44.17;27.38;;;;;;;;;;5043877;28;20399;-70
2022/03/26 04:38:16;;;;;;;46.55;26.73;;;;;;;;;;5046616;28;20040;-70
2022/03/26 04:40:42;;;;;;;46.75;27.60;;;;;;;;;;5047245;28;20103;-70
2022/03/26 04:43:08;;;;;;;43.60;27.92;;;;;;;;;;5047155;28;20045;-70
2022/03/26 04:45:33;;;;;;;43.53;27.42;;;;;;;;;;5046413;28;20120;-70
2022/03/26 04:47:59;;;;;;;48.70;26.52;;;;;;;;;;5028973;28;20044;-70
2022/03/26 04:50:26;;;;;;;47.72;28.17;;;;;;;;;;5047213;28;20072;-70
2022/03/26 04:52:52;;;;;;;43.42;25.85;;;;;;;;;;5047325;28;20221;-70
2022/03/26 04:55:18;;;;;;;53.50;27.38;;;;;;;;;;5052360;28;20025;-70
2022/03/26 04:57:47;;;;;;;47.30;26.80;;;;;;;;;;5046263;28;20410;-70
2022/03/26 05:00:15;;;;;;;47.00;28.17;;;;;;;;;;5047552;28;20131;-70
2022/03/26 05:02:42;;;;;;;48.90;26.60;;;;;;;;;;5050008;28;20369;-69
2022/03/26 05:05:09;;;;;;;47.60;28.17;;;;;;;;;;5050068;28;20060;-69
2022/03/26 05:07:47;;;;;;;45.83;26.17;;;;;;;;;;5050739;28;20142;-69
2022/03/26 05:10:29;;;;;;;43.40;25.48;;;;;;;;;;5032985;28;20036;-69
2022/03/26 05:12:56;;;;;;;47.13;27.08;;;;;;;;;;5049607;28;20040;-69
2022/03/26 05:15:24;;;;;;;45.95;26.30;;;;;;;;;;5050377;28;20119;-69
2022/03/26 05:17:51;;;;;;;43.67;26.88;;;;;;;;;;5050506;28;20204;-70
2022/03/26 05:20:18;;;;;;;48.83;27.85;;;;;;;;;;5049386;28;20311;-69
2022/03/26 05:22:45;;;;;;;41.08;25.98;;;;;;;;;;5049909;28;20025;-69
2022/03/26 05:25:12;;;;;;;44.10;26.63;;;;;;;;;;5019845;28;20044;-69
2022/03/26 05:27:38;;;;;;;46.35;27.30;;;;;;;;;;5054276;28;20037;-69
2022/03/26 05:30:05;;;;;;;51.97;28.92;;;;;;;;;;5050494;28;20044;-69
2022/03/26 05:32:31;;;;;;;48.15;26.58;;;;;;;;;;5047897;28;20072;-69
2022/03/26 05:34:56;;;;;;;48.72;27.90;;;;;;;;;;5047953;28;20064;-69
2022/03/26 05:37:22;;;;;;;48.30;27.35;;;;;;;;;;5049886;28;20041;-69
2022/03/26 05:39:47;;;;;;;55.63;28.23;;;;;;;;;;5050200;28;20037;-70
2022/03/26 05:42:14;;;;;;;50.42;28.42;;;;;;;;;;5048026;28;20054;-70
2022/03/26 05:44:40;;;;;;;45.22;28.10;;;;;;;;;;5048651;28;20043;-69
2022/03/26 05:47:06;;;;;;;44.33;26.48;;;;;;;;;;5049132;28;20033;-69
2022/03/26 05:49:32;;;;;;;54.22;29.33;;;;;;;;;;5048984;28;20048;-69
2022/03/26 05:51:58;;;;;;;50.83;29.85;;;;;;;;;;5049284;28;20035;-69
2022/03/26 05:54:23;;;;;;;43.90;27.90;;;;;;;;;;5029306;28;20124;-69
2022/03/26 05:56:52;;;;;;;52.28;27.20;;;;;;;;;;5036206;28;20503;-69
2022/03/26 05:59:23;;;;;;;42.00;28.45;;;;;;;;;;5044677;28;20068;-70
2022/03/26 06:01:54;;;;;;;44.97;28.17;;;;;;;;;;5047500;28;20035;-69
2022/03/26 06:04:21;;;;;;;49.63;28.38;;;;;;;;;;5029958;28;20557;-70
2022/03/26 06:06:48;;;;;;;45.83;27.00;;;;;;;;;;5049326;28;20215;-69
2022/03/26 06:09:13;;;;;;;47.03;28.13;;;;;;;;;;5049728;28;20036;-70
2022/03/26 06:11:39;;;;;;;51.97;28.75;;;;;;;;;;5047713;28;20033;-70
2022/03/26 06:14:06;;;;;;;45.90;28.67;;;;;;;;;;5049152;28;20043;-70
2022/03/26 06:16:32;;;;;;;48.05;29.13;;;;;;;;;;5049188;28;20025;-70
2022/03/26 06:18:58;;;;;;;52.17;30.58;;;;;;;;;;5048145;28;20029;-70
2022/03/26 06:21:24;;;;;;;44.25;28.35;;;;;;;;;;5049243;28;20094;-70
2022/03/26 06:23:49;;;;;;;44.55;27.45;;;;;;;;;;5054744;28;20056;-70
2022/03/26 06:26:15;;;;;;;45.45;27.45;;;;;;;;;;5055579;28;20484;-70
2022/03/26 06:28:41;;;;;;;44.38;26.30;;;;;;;;;;5029682;28;20072;-69
2022/03/26 06:31:08;;;;;;;46.22;27.73;;;;;;;;;;5048066;28;20051;-70
2022/03/26 06:33:34;;;;;;;36.15;25.10;;;;;;;;;;5049200;28;20598;-70
2022/03/26 06:36:01;;;;;;;51.10;27.50;;;;;;;;;;5049151;28;20476;-70
2022/03/26 06:38:31;;;;;;;42.50;27.77;;;;;;;;;;5046222;28;20041;-70
2022/03/26 06:40:58;;;;;;;48.65;29.13;;;;;;;;;;5048219;28;20091;-70
2022/03/26 06:43:24;;;;;;;51.10;29.92;;;;;;;;;;5049208;28;20036;-70
2022/03/26 06:45:50;;;;;;;45.90;28.98;;;;;;;;;;5030527;28;20407;-69
2022/03/26 06:48:16;;;;;;;43.08;28.75;;;;;;;;;;5047546;28;20040;-69
2022/03/26 06:50:42;;;;;;;48.30;29.00;;;;;;;;;;5030928;28;20481;-70
2022/03/26 06:53:07;;;;;;;49.40;29.50;;;;;;;;;;5072083;22;20099;-70
2022/03/26 06:55:33;;;;;;;43.10;27.35;;;;;;;;;;5057789;28;20029;-70
2022/03/26 06:57:59;;;;;;;44.17;28.67;;;;;;;;;;5050038;28;20675;-70
2022/03/26 07:00:25;;;;;;;46.53;28.27;;;;;;;;;;5031074;28;20091;-71
2022/03/26 07:02:50;;;;;;;46.42;28.33;;;;;;;;;;5046443;28;20637;-70
2022/03/26 07:05:16;;;;;;;46.85;30.98;;;;;;;;;;5052717;28;20033;-70
2022/03/26 07:07:41;;;;;;;50.70;28.65;;;;;;;;;;5048791;28;20045;-70
2022/03/26 07:10:08;;;;;;;47.28;28.30;;;;;;;;;;5031168;28;20064;-70
2022/03/26 07:12:34;;;;;;;49.20;30.33;;;;;;;;;;5046331;28;20032;-70
2022/03/26 07:15:00;;;;;;;45.75;26.88;;;;;;;;;;5049454;28;20036;-70
2022/03/26 07:17:25;;;;;;;44.13;28.45;;;;;;;;;;5047804;28;20422;-70
2022/03/26 07:19:51;;;;;;;45.33;28.02;;;;;;;;;;5048660;28;20033;-70
2022/03/26 07:22:18;;;;;;;43.90;28.92;;;;;;;;;;5035033;28;20033;-70
2022/03/26 07:24:44;;;;;;;38.38;28.85;;;;;;;;;;5053956;28;20028;-70
2022/03/26 07:27:09;;;;;;;48.15;29.63;;;;;;;;;;5063068;28;20422;-70
2022/03/26 07:29:38;;;;;;;44.65;29.65;;;;;;;;;;5050571;28;20060;-70
2022/03/26 07:32:06;;;;;;;44.85;29.73;;;;;;;;;;5054626;28;20047;-70
2022/03/26 07:34:32;;;;;;;47.28;30.77;;;;;;;;;;5029874;28;20036;-71
2022/03/26 07:36:57;;;;;;;42.90;29.63;;;;;;;;;;5053811;28;20042;-70
2022/03/26 07:39:23;;;;;;;41.40;31.30;;;;;;;;;;5053491;28;20123;-71
2022/03/26 07:41:49;;;;;;;47.25;32.17;;;;;;;;;;5048103;28;20060;-70
2022/03/26 07:44:14;;;;;;;45.13;30.92;;;;;;;;;;5030731;28;20087;-70
2022/03/26 07:46:40;;;;;;;47.55;28.05;;;;;;;;;;5049566;28;20032;-70
2022/03/26 07:49:06;;;;;;;39.78;28.73;;;;;;;;;;5047733;28;20033;-71
2022/03/26 07:51:31;;;;;;;45.33;29.92;;;;;;;;;;5047395;28;20078;-71
2022/03/26 07:53:57;;;;;;;46.97;30.40;;;;;;;;;;5028311;28;20037;-70
2022/03/26 07:56:23;;;;;;;45.42;28.95;;;;;;;;;;5034677;28;20122;-70
2022/03/26 07:58:49;;;;;;;45.50;31.92;;;;;;;;;;5047919;28;20037;-71
2022/03/26 08:01:15;;;;;;;45.05;30.45;;;;;;;;;;5030013;28;20033;-70
2022/03/26 08:03:41;;;;;;;47.17;31.75;;;;;;;;;;5050214;28;20033;-70
2022/03/26 08:06:07;;;;;;;45.90;29.92;;;;;;;;;;5049247;28;20384;-70
2022/03/26 08:08:33;;;;;;;50.17;29.92;;;;;;;;;;5047983;28;20508;-70
2022/03/26 08:10:58;;;;;;;45.72;29.60;;;;;;;;;;5049453;28;20037;-71
2022/03/26 08:13:24;;;;;;;44.28;28.85;;;;;;;;;;5050959;28;20059;-70
2022/03/26 08:15:49;;;;;;;41.63;29.15;;;;;;;;;;5046739;28;20037;-71
2022/03/26 08:18:16;;;;;;;43.05;28.80;;;;;;;;;;5047475;28;20047;-70
2022/03/26 08:20:43;;;;;;;44.03;30.10;;;;;;;;;;5048499;28;20041;-70
2022/03/26 08:23:09;;;;;;;43.92;29.30;;;;;;;;;;5032530;28;20046;-71
2022/03/26 08:28:19;;;;;;;40.22;29.33;;;;;;;;;;5045520;28;20072;-70
2022/03/26 08:30:44;;;;;;;42.92;29.73;;;;;;;;;;5029469;28;20064;-71
2022/03/26 08:33:10;;;;;;;41.90;28.98;;;;;;;;;;5046257;28;20053;-70
2022/03/26 08:35:41;;;;;;;45.15;29.10;;;;;;;;;;5048397;28;20807;-70
2022/03/26 08:38:08;;;;;;;42.95;28.80;;;;;;;;;;5054182;28;20039;-70
2022/03/26 08:40:34;;;;;;;42.47;28.40;;;;;;;;;;5062818;28;20120;-71
2022/03/26 08:43:00;;;;;;;42.38;28.80;;;;;;;;;;5033181;28;20099;-70
2022/03/26 08:45:26;;;;;;;43.28;29.88;;;;;;;;;;4998897;28;20041;-70
2022/03/26 08:47:53;;;;;;;41.38;27.75;;;;;;;;;;5056933;28;20064;-70
2022/03/26 08:50:18;;;;;;;43.50;29.50;;;;;;;;;;5051629;28;20036;-70
2022/03/26 08:52:47;;;;;;;44.10;30.35;;;;;;;;;;5033130;28;20029;-70
2022/03/26 08:55:14;;;;;;;42.72;29.45;;;;;;;;;;5054117;28;20594;-71
2022/03/26 08:57:40;;;;;;;43.70;27.00;;;;;;;;;;5051150;28;20037;-70
2022/03/26 09:00:07;;;;;;;47.05;29.30;;;;;;;;;;5050979;28;20108;-71
2022/03/26 09:02:33;;;;;;;45.65;28.33;;;;;;;;;;5050635;28;20052;-71
2022/03/26 09:04:59;;;;;;;48.75;30.05;;;;;;;;;;5057012;28;20037;-70
2022/03/26 09:07:25;;;;;;;40.78;27.88;;;;;;;;;;5050965;28;20412;-70
2022/03/26 09:09:50;;;;;;;43.45;28.70;;;;;;;;;;5050519;28;20057;-70
2022/03/26 09:12:16;;;;;;;41.95;28.65;;;;;;;;;;5056929;28;20418;-71
2022/03/26 09:14:43;;;;;;;44.92;27.33;;;;;;;;;;5056408;28;20434;-71
2022/03/26 09:17:09;;;;;;;39.10;26.48;;;;;;;;;;5050369;28;20033;-71
2022/03/26 09:19:36;;;;;;;45.63;28.05;;;;;;;;;;5051715;28;20032;-71
2022/03/26 09:22:02;;;;;;;46.28;30.25;;;;;;;;;;5054391;28;20036;-70
2022/03/26 09:24:28;;;;;;;43.40;29.10;;;;;;;;;;5055241;28;20036;-70
2022/03/26 09:26:54;;;;;;;40.35;27.42;;;;;;;;;;5052713;28;20032;-70
2022/03/26 09:29:20;;;;;;;38.20;28.33;;;;;;;;;;5036792;28;20056;-70
2022/03/26 09:31:46;;;;;;;40.60;27.38;;;;;;;;;;5050783;28;20037;-70
2022/03/26 09:34:11;;;;;;;37.97;27.92;;;;;;;;;;5050225;28;20024;-70
2022/03/26 09:36:37;;;;;;;45.30;29.25;;;;;;;;;;5051009;28;20040;-70
2022/03/26 09:39:03;;;;;;;43.58;28.15;;;;;;;;;;5050501;28;20033;-70
2022/03/26 09:41:31;;;;;;;44.30;28.75;;;;;;;;;;5050505;28;20104;-70
2022/03/26 09:43:58;;;;;;;43.58;28.75;;;;;;;;;;5051220;28;20044;-69
2022/03/26 09:46:24;;;;;;;39.70;28.02;;;;;;;;;;5058369;28;20043;-70
2022/03/26 09:48:50;;;;;;;51.38;30.83;;;;;;;;;;5049030;28;20032;-70
2022/03/26 09:51:20;;;;;;;39.75;27.20;;;;;;;;;;5055966;28;20037;-70
2022/03/26 09:53:46;;;;;;;44.65;28.13;;;;;;;;;;5060996;28;20577;-69
2022/03/26 09:56:12;;;;;;;41.00;27.67;;;;;;;;;;5054170;28;20059;-70
2022/03/26 09:58:38;;;;;;;43.05;28.27;;;;;;;;;;5031919;28;20064;-70
2022/03/26 10:01:03;;;;;;;44.08;28.33;;;;;;;;;;5055618;28;20500;-70
2022/03/26 10:03:29;;;;;;;45.40;28.83;;;;;;;;;;5050957;28;20071;-70
2022/03/26 10:06:02;;;;;;;38.55;28.75;;;;;;;;;;5053358;28;20032;-70
2022/03/26 10:08:28;;;;;;;40.65;29.33;;;;;;;;;;5032380;28;20071;-70
2022/03/26 10:10:55;;;;;;;41.40;28.40;;;;;;;;;;5051670;28;20037;-70
2022/03/26 10:13:40;;;;;;;41.33;28.08;;;;;;;;;;5049738;28;20068;-70
2022/03/26 10:16:11;;;;;;;42.25;29.13;;;;;;;;;;5053661;28;20032;-70
2022/03/26 10:18:39;;;;;;;44.38;29.50;;;;;;;;;;5049577;28;20114;-70
2022/03/26 10:21:13;;;;;;;42.03;28.48;;;;;;;;;;5051830;28;20581;-70
2022/03/26 10:23:44;;;;;;;39.53;29.10;;;;;;;;;;5056443;28;20476;-70
2022/03/26 10:26:13;;;;;;;48.38;28.90;;;;;;;;;;5055973;28;20029;-70
2022/03/26 10:28:42;;;;;;;43.28;29.90;;;;;;;;;;5049255;28;20492;-70
2022/03/26 10:34:07;;;;;;;34.95;26.55;;;;;;;;;;5052784;28;20420;-70
2022/03/26 10:37:02;;;;;;;38.05;27.60;;;;;;;;;;5047372;28;20017;-70
2022/03/26 10:39:30;;;;;;;39.97;27.58;;;;;;;;;;4968921;28;20057;-69
2022/03/26 10:41:57;;;;;;;36.22;28.10;;;;;;;;;;4973223;28;20042;-70
2022/03/26 10:44:28;;;;;;;40.20;27.45;;;;;;;;;;4969436;28;20613;-70
2022/03/26 10:46:57;;;;;;;36.10;28.10;;;;;;;;;;4971018;28;20049;-70
2022/03/26 10:49:33;;;;;;;35.65;27.70;;;;;;;;;;4967365;28;20053;-70
2022/03/26 10:52:13;;;;;;;43.47;29.42;;;;;;;;;;4976415;28;20062;-70
2022/03/26 10:54:39;;;;;;;36.58;27.17;;;;;;;;;;4972934;28;20066;-70
2022/03/26 10:57:05;;;;;;;38.05;28.02;;;;;;;;;;4969898;28;20093;-69
2022/03/26 10:59:31;;;;;;;36.75;27.95;;;;;;;;;;4972051;28;20039;-70
2022/03/26 11:01:58;;;;;;;37.78;27.35;;;;;;;;;;4977086;28;20097;-69
2022/03/26 11:04:30;;;;;;;42.75;29.13;;;;;;;;;;4973026;28;20144;-70
2022/03/26 11:06:57;;;;;;;39.58;28.67;;;;;;;;;;4969825;28;20117;-69
2022/03/26 11:09:25;;;;;;;36.63;28.13;;;;;;;;;;4976379;28;20046;-70
2022/03/26 11:11:51;;;;;;;34.50;27.63;;;;;;;;;;4973449;28;20406;-70
2022/03/26 11:14:17;;;;;;;36.60;28.45;;;;;;;;;;4975535;28;20035;-70
2022/03/26 11:17:02;;;;;;;40.70;29.40;;;;;;;;;;5033056;28;20040;-69
2022/03/26 11:19:42;;;;;;;37.38;27.42;;;;;;;;;;5050952;28;20037;-70
2022/03/26 11:22:13;;;;;;;35.80;27.67;;;;;;;;;;5044173;28;20108;-70
2022/03/26 11:24:58;;;;;;;34.45;27.25;;;;;;;;;;5052184;28;20483;-70
2022/03/26 11:28:01;;;;;;;38.05;27.85;;;;;;;;;;5053171;28;20542;-69
2022/03/26 11:30:47;;;;;;;36.67;27.17;;;;;;;;;;5044197;28;20051;-69
2022/03/26 11:33:17;;;;;;;31.90;25.63;;;;;;;;;;5045080;28;20040;-70
2022/03/26 11:35:58;;;;;;;35.20;27.08;;;;;;;;;;5053558;28;20036;-70
2022/03/26 11:38:30;;;;;;;30.77;26.13;;;;;;;;;;5025140;28;20080;-70
2022/03/26 11:40:57;;;;;;;35.22;26.40;;;;;;;;;;5048166;28;20043;-70
2022/03/26 11:43:44;;;;;;;34.95;27.23;;;;;;;;;;5049972;28;20099;-70
2022/03/26 11:51:51;;;;;;;30.38;26.33;;;;;;;;;;5046446;28;20566;-70
2022/03/26 11:54:18;;;;;;;32.15;25.65;;;;;;;;;;5049643;28;20036;-69
2022/03/26 11:56:45;;;;;;;34.60;27.08;;;;;;;;;;5057144;28;20143;-69
2022/03/26 11:59:16;;;;;;;33.83;26.65;;;;;;;;;;5028291;28;20032;-70
2022/03/26 12:01:48;;;;;;;32.83;26.63;;;;;;;;;;5057588;28;20662;-70
2022/03/26 12:04:16;;;;;;;36.53;28.65;;;;;;;;;;5029649;28;20033;-69
2022/03/26 12:06:44;;;;;;;37.40;26.90;;;;;;;;;;5029359;28;20484;-69
2022/03/26 12:09:14;;;;;;;33.50;26.98;;;;;;;;;;5047311;28;20062;-69
2022/03/26 12:12:06;;;;;;;32.75;27.27;;;;;;;;;;5051882;28;20036;-69
2022/03/26 12:14:33;;;;;;;32.60;26.27;;;;;;;;;;5046774;28;20373;-69
2022/03/26 12:16:58;;;;;;;34.90;26.33;;;;;;;;;;5047300;28;20108;-70
2022/03/26 12:19:45;;;;;;;32.13;27.45;;;;;;;;;;5030849;28;20127;-69
2022/03/26 12:22:21;;;;;;;33.20;26.48;;;;;;;;;;5044270;28;20158;-68
2022/03/26 12:24:48;;;;;;;32.10;25.88;;;;;;;;;;5055643;28;20033;-68
2022/03/26 12:27:15;;;;;;;35.05;26.95;;;;;;;;;;5050444;28;20061;-68
2022/03/26 12:29:41;;;;;;;30.70;26.05;;;;;;;;;;5056645;28;20528;-68
2022/03/26 12:32:08;;;;;;;31.80;26.35;;;;;;;;;;5046936;28;20037;-68
2022/03/26 12:34:33;;;;;;;31.23;26.33;;;;;;;;;;5047089;28;20052;-68
2022/03/26 12:37:01;;;;;;;33.42;25.15;;;;;;;;;;5051349;28;20960;-68
2022/03/26 12:39:27;;;;;;;33.42;25.80;;;;;;;;;;5051621;28;20067;-68
2022/03/26 12:41:54;;;;;;;33.65;25.48;;;;;;;;;;5047269;28;20178;-68
2022/03/26 12:44:21;;;;;;;31.13;25.38;;;;;;;;;;5046042;28;20091;-69
2022/03/26 12:46:49;;;;;;;31.45;25.45;;;;;;;;;;5047766;28;20035;-69
2022/03/26 12:49:21;;;;;;;28.48;23.98;;;;;;;;;;5046436;28;20716;-69
2022/03/26 12:51:50;;;;;;;28.35;24.15;;;;;;;;;;5046568;28;20556;-69
2022/03/26 12:54:16;;;;;;;28.00;23.05;;;;;;;;;;5049862;28;20033;-69
2022/03/26 12:56:42;;;;;;;26.35;22.52;;;;;;;;;;5056599;28;20897;-68
2022/03/26 12:59:11;;;;;;;26.30;22.83;;;;;;;;;;5047290;28;20033;-68
2022/03/26 13:01:37;;;;;;;27.23;22.98;;;;;;;;;;5045257;28;20086;-68
2022/03/26 13:04:03;;;;;;;24.67;22.08;;;;;;;;;;5049727;28;20028;-68
2022/03/26 13:06:29;;;;;;;27.58;23.52;;;;;;;;;;5051332;28;20039;-69
2022/03/26 13:08:57;;;;;;;24.25;21.77;;;;;;;;;;5045640;28;20049;-69
2022/03/26 13:11:25;;;;;;;24.50;21.80;;;;;;;;;;5054581;28;20628;-69
2022/03/26 13:13:55;;;;;;;25.17;22.08;;;;;;;;;;5049669;28;20045;-69
2022/03/26 13:16:26;;;;;;;26.88;22.45;;;;;;;;;;5044937;28;20443;-69
2022/03/26 13:19:09;;;;;;;28.17;22.70;;;;;;;;;;5026962;28;20033;-70
2022/03/26 13:21:41;;;;;;;27.20;22.65;;;;;;;;;;5047451;28;20029;-69
2022/03/26 13:24:08;;;;;;;25.67;22.90;;;;;;;;;;5055556;28;20028;-69
2022/03/26 13:26:49;;;;;;;24.63;21.58;;;;;;;;;;5058186;28;20033;-69
2022/03/26 13:29:19;;;;;;;29.35;23.75;;;;;;;;;;5051216;28;20071;-69
2022/03/26 13:31:48;;;;;;;28.88;23.13;;;;;;;;;;5046205;28;20052;-70
2022/03/26 13:34:17;;;;;;;26.23;23.23;;;;;;;;;;5047909;28;20044;-69
2022/03/26 13:36:47;;;;;;;26.63;22.98;;;;;;;;;;5047469;28;20063;-69
2022/03/26 13:39:14;;;;;;;27.48;22.95;;;;;;;;;;5046082;28;20037;-70
2022/03/26 13:41:40;;;;;;;29.80;22.67;;;;;;;;;;5052802;28;20148;-69
2022/03/26 13:44:06;;;;;;;26.08;22.48;;;;;;;;;;5047879;28;20809;-69
2022/03/26 13:46:34;;;;;;;25.27;22.30;;;;;;;;;;5052631;28;20032;-69
2022/03/26 13:48:59;;;;;;;31.25;23.70;;;;;;;;;;5048477;28;20052;-69
2022/03/26 13:51:34;;;;;;;24.92;22.05;;;;;;;;;;5048181;28;20087;-69
2022/03/26 13:54:02;;;;;;;26.45;23.30;;;;;;;;;;5050942;28;20087;-69
2022/03/26 13:56:30;;;;;;;23.88;21.40;;;;;;;;;;5057064;28;20045;-69
2022/03/26 13:59:01;;;;;;;27.48;22.80;;;;;;;;;;5030585;28;20148;-69
2022/03/26 14:01:26;;;;;;;27.98;22.98;;;;;;;;;;5047755;28;20040;-69
2022/03/26 14:03:55;;;;;;;27.40;23.58;;;;;;;;;;5046332;28;20546;-69
2022/03/26 14:06:21;;;;;;;;;;;;;;;;;;5051010;28;20053;-69
2022/03/26 14:08:50;;;;;;;26.95;22.42;;;;;;;;;;5047560;28;20530;-69
2022/03/26 14:11:19;;;;;;;25.80;23.05;;;;;;;;;;5047951;28;20082;-69
2022/03/26 14:13:46;;;;;;;29.05;23.45;;;;;;;;;;5044827;28;20121;-69
2022/03/26 14:16:12;;;;;;;27.05;22.52;;;;;;;;;;5051381;28;20028;-69
2022/03/26 14:18:38;;;;;;;25.08;22.27;;;;;;;;;;5029268;28;20423;-68
2022/03/26 14:21:04;;;;;;;26.80;22.50;;;;;;;;;;5027907;28;20043;-69
2022/03/26 14:23:30;;;;;;;29.17;21.45;;;;;;;;;;5050978;28;20042;-69
2022/03/26 14:25:55;;;;;;;25.77;21.23;;;;;;;;;;5054714;28;20407;-69
2022/03/26 14:28:21;;;;;;;27.70;22.40;;;;;;;;;;5047857;28;20044;-69
2022/03/26 14:30:47;;;;;;;25.00;22.23;;;;;;;;;;5047684;28;20032;-68
2022/03/26 14:33:13;;;;;;;26.80;21.25;;;;;;;;;;5046933;28;20377;-68